CheckWX is a tool to help pilots better visualize weather data.  It is not intended as a substitute for an official pre-flight weather briefing.

02:08:48 UTC

KMGM TAF
Montgomery Regional (Dannelly Field) Airport
Montgomery, Alabama, USA
KMGM 192332Z 2000/2024 VRB03KT 3SM -TSRA BKN050CB FM200100 00000KT P6SM FEW080 BKN250 FM200900 00000KT 4SM BR SKC FM201300 13005KT P6SM FEW050 PROB30 2018/2024 2SM TSRA BKN035CB

Aug-20@
00:00 UTC

Aug-20 @ 00:00 UTC

Aug-20@
01:00 UTC

Aug-20 @ 01:00 UTC

KMGM 192332Z 2000/2024 VRB03KT 3SM -TSRA BKN050CB

Expired

Wind
  • Variable at 3 KTS
Conditions
Light Thunderstorm, Light Rain
Cloud Levels
  • Broken at 5,000' AGL

Aug-20@
01:00 UTC

Aug-20 @ 01:00 UTC

Aug-20@
09:00 UTC

Aug-20 @ 09:00 UTC

FM200100 00000KT P6SM FEW080 BKN250

From

From Standard forecast or significant change

Cloud Levels
  • Few at 8,000' AGL
  • Broken at 25,000' AGL

Aug-20@
09:00 UTC

Aug-20 @ 09:00 UTC

Aug-20@
13:00 UTC

Aug-20 @ 13:00 UTC

FM200900 00000KT 4SM BR SKC

From

From Standard forecast or significant change

Conditions
Mist
Cloud Levels
  • Clear skies

Aug-20@
13:00 UTC

Aug-20 @ 13:00 UTC

Aug-21@
00:00 UTC

Aug-21 @ 00:00 UTC

FM201300 13005KT P6SM FEW050

From

From Standard forecast or significant change

Wind
  • 130° at 5 KTS
Cloud Levels
  • Few at 5,000' AGL

Aug-20@
18:00 UTC

Aug-20 @ 18:00 UTC

Aug-21@
00:00 UTC

Aug-21 @ 00:00 UTC

PROB30 2018/2024 2SM TSRA BKN035CB

Probable - 30% Likelihood

Probable - 30% Likelihood during this time.

Conditions
Thunderstorm, Rain
Cloud Levels
  • Broken at 3,500' AGL